CW7959 Weather Reports


Display with metric or nautical units.
time (UTC)temp
F
wind
direction
speed
MPH
gust
MPH
rain 1hr
in
rain 24hr
in
rain mn
in
humidity
%
barometer
mb
20200706122904 61 290 5.0 14.0 0.00 0.15 0.01 57 1017.8
20200706122407 62 241 4.0 12.0 0.00 0.15 0.01 54 1017.8
20200706121905 62 264 3.0 12.0 0.00 0.16 0.01 56 1017.8
20200706121406 60 249 2.0 5.0 0.00 0.17 0.01 63 1017.6
20200706120904 59 299 5.0 9.0 0.00 0.19 0.01 60 1017.6
20200706120404 59 331 1.0 6.0 0.00 0.24 0.01 62 1017.6
20200706115904 58 299 2.0 9.0 0.00 0.30 0.01 63 1017.6
20200706115405 58 325 2.0 5.0 0.00 0.31 0.01 64 1017.6
20200706114906 58 325 0.0 2.0 0.00 0.31 0.01 69 1017.6
20200706114407 58 328 1.0 6.0 0.00 0.31 0.01 65 1017.6
20200706113905 57 350 1.0 3.0 0.00 0.31 0.01 66 1017.5
20200706113405 57 355 0.0 1.0 0.00 0.31 0.01 67 1017.3
20200706112904 58 355 0.0 0.0 0.00 0.31 0.01 62 1017.4
20200706112404 58 355 0.0 1.0 0.00 0.31 0.01 58 1017.4
20200706111905 58 355 1.0 3.0 0.00 0.31 0.01 62 1017.4
20200706111406 57 355 2.0 3.0 0.00 0.31 0.01 67 1017.2
20200706110904 57 350 2.0 6.0 0.00 0.31 0.01 70 1017.3
20200706110406 57 307 1.0 3.0 0.00 0.31 0.01 71 1017.3
20200706105904 57 310 0.0 5.0 0.00 0.31 0.01 64 1017.1
20200706105405 57 311 0.0 0.0 0.00 0.32 0.01 68 1017.2
20200706104904 57 311 0.0 1.0 0.00 0.32 0.01 62 1017.0
20200706104405 57 311 0.0 5.0 0.00 0.34 0.01 63 1017.0
20200706103905 56 311 1.0 3.0 0.00 0.35 0.01 66 1016.9
20200706103404 56 311 0.0 3.0 0.00 0.37 0.01 67 1016.8
20200706102905 56 311 1.0 6.0 0.00 0.39 0.01 70 1016.8
20200706102405 55 318 2.0 7.0 0.00 0.39 0.01 66 1016.8
20200706101905 55 5 2.0 5.0 0.00 0.39 0.01 66 1016.8
20200706101405 56 20 3.0 8.0 0.00 0.39 0.01 72 1016.7
20200706100905 56 5 3.0 7.0 0.00 0.39 0.01 70 1016.7
20200706100404 56 10 3.0 8.0 0.00 0.39 0.01 68 1016.6
20200706095904 56 30 3.0 8.0 0.00 0.39 0.01 68 1016.6
20200706095404 56 19 2.0 7.0 0.00 0.39 0.01 63 1016.7
20200706094904 57 0 3.0 7.0 0.00 0.41 0.01 65 1016.7
20200706094404 58 285 4.0 8.0 0.00 0.42 0.01 58 1016.5
20200706093904 59 3 2.0 8.0 0.00 0.43 0.01 61 1016.5
20200706093405 58 283 5.0 13.0 0.00 0.44 0.01 62 1016.4
20200706092905 59 341 2.0 12.0 0.00 0.48 0.01 66 1016.3
20200706092405 58 294 7.0 16.0 0.00 0.50 0.01 62 1016.3
20200706091905 58 311 2.0 10.0 0.00 0.53 0.01 63 1016.3
20200706091406 58 306 4.0 12.0 0.00 0.53 0.01 64 1016.3
20200706090904 58 357 5.0 14.0 0.00 0.53 0.01 63 1016.2
20200706090405 58 344 6.0 12.0 0.00 0.53 0.01 64 1016.1
20200706085905 57 4 5.0 12.0 0.00 0.53 0.01 65 1016.0
20200706085406 57 0 6.0 12.0 0.00 0.53 0.01 64 1015.9
20200706084905 57 347 5.0 12.0 0.00 0.53 0.01 64 1015.9
20200706084404 57 345 4.0 10.0 0.00 0.53 0.01 67 1015.7
20200706083905 56 359 7.0 12.0 0.00 0.53 0.01 66 1015.7
20200706083404 56 15 7.0 12.0 0.00 0.53 0.01 68 1015.6
20200706082904 56 357 5.0 12.0 0.00 0.54 0.01 68 1015.4
20200706082405 56 352 5.0 12.0 0.00 0.56 0.01 72 1015.3
20200706081904 56 326 5.0 9.0 0.00 0.56 0.01 67 1015.5
20200706081404 56 345 5.0 12.0 0.00 0.56 0.01 72 1015.1
20200706080905 56 351 4.0 10.0 0.00 0.56 0.01 75 1015.0
20200706080404 55 20 4.0 12.0 0.00 0.57 0.01 70 1014.9
20200706075904 55 341 3.0 8.0 0.00 0.57 0.01 69 1014.9
20200706075405 54 22 7.0 12.0 0.00 0.57 0.01 71 1014.9
20200706074905 54 4 4.0 10.0 0.00 0.58 0.01 71 1014.7
20200706074405 53 341 4.0 15.0 0.00 0.58 0.01 73 1014.8
20200706073906 54 13 2.0 17.0 0.00 0.58 0.01 70 1014.8
20200706073405 54 323 3.0 17.0 0.00 0.58 0.01 72 1014.6
20200706072904 54 10 5.0 12.0 0.00 0.58 0.01 75 1014.5
20200706072404 53 16 2.0 9.0 0.00 0.58 0.01 77 1014.4
20200706071905 53 331 2.0 12.0 0.00 0.58 0.01 77 1014.4
20200706071405 53 337 4.0 12.0 0.00 0.58 0.01 76 1014.4
20200706070904 53 271 5.0 12.0 0.00 0.58 0.01 78 1014.3
20200706070404 53 227 5.0 14.0 0.00 0.58 0.01 77 1013.9
20200706065904 53 338 3.0 13.0 0.00 0.58 0.01 79 1013.9
20200706065404 53 13 3.0 12.0 0.00 0.58 0.01 80 1013.6
20200706064906 52 342 3.0 8.0 0.00 0.58 0.01 82 1013.4
20200706064405 52 343 0.0 0.0 0.00 0.58 0.01 85 1013.4
20200706063904 53 344 0.0 3.0 0.00 0.58 0.01 83 1013.3
20200706063405 53 317 2.0 7.0 0.00 0.58 0.01 87 1013.3
20200706062905 53 310 1.0 6.0 0.00 0.58 0.01 81 1013.2
20200706062405 53 14 2.0 9.0 0.00 0.58 0.01 87 1013.2
20200706061905 53 279 0.0 2.0 0.00 0.58 0.01 86 1013.0
20200706061405 52 279 0.0 2.0 0.00 0.59 0.01 87 1013.0
20200706060907 52 279 0.0 0.0 0.00 0.61 0.01 89 1013.0
20200706060405 52 279 0.0 1.0 0.00 0.61 0.01 85 1012.9
20200706055904 52 279 0.0 3.0 0.00 0.61 0.01 86 1012.7
20200706055404 52 278 1.0 3.0 0.00 0.61 0.01 84 1012.4
20200706054905 52 278 3.0 9.0 0.00 0.61 0.01 81 1012.4
20200706054406 52 289 2.0 10.0 0.00 0.61 0.01 81 1012.4
20200706053905 52 5 3.0 6.0 0.00 0.61 0.01 83 1012.4
20200706053405 52 2 3.0 8.0 0.00 0.61 0.01 82 1012.1
20200706052905 52 275 1.0 6.0 0.00 0.61 0.01 83 1012.0
20200706052412 52 264 2.0 8.0 0.00 0.61 0.01 83 1011.9
20200706051904 52 315 2.0 6.0 0.00 0.61 0.01 84 1011.8
20200706051404 52 307 0.0 2.0 0.00 0.61 0.01 84 1011.6
20200706050905 51 307 1.0 5.0 0.00 0.61 0.01 83 1011.4
20200706050404 51 334 2.0 7.0 0.00 0.61 0.01 85 1011.5
20200706045904 51 303 2.0 7.0 0.00 0.61 0.01 87 1011.3
20200706045404 51 304 1.0 3.0 0.00 0.61 0.01 87 1011.1
20200706044907 51 304 2.0 7.0 0.01 0.61 0.01 88 1011.1
20200706044405 51 301 1.0 3.0 0.01 0.61 0.01 89 1010.9
20200706043905 51 301 1.0 7.0 0.01 0.61 0.01 90 1010.8
20200706043405 50 0 3.0 10.0 0.01 0.61 0.01 89 1010.6
20200706042905 50 16 2.0 5.0 0.01 0.61 0.01 92 1010.5
20200706042405 50 296 0.0 3.0 0.01 0.61 0.01 93 1010.4
20200706041904 50 313 0.0 1.0 0.01 0.61 0.01 95 1010.4
20200706041405 50 313 1.0 5.0 0.01 0.61 0.01 93 1010.3
20200706040906 50 312 3.0 9.0 0.01 0.61 0.01 96 1010.4
20200706040405 49 10 0.0 2.0 0.01 0.61 0.01 96 1010.0
20200706035906 49 10 0.0 3.0 0.01 0.61 0.01 96 1009.9
20200706035406 49 10 0.0 3.0 0.01 0.61 0.01 96 1009.8
20200706034904 49 9 1.0 3.0 0.00 0.61 0.00 97 1009.6
20200706034404 49 9 1.0 3.0 0.00 0.61 0.00 97 1009.5
20200706033904 49 9 0.0 1.0 0.00 0.61 0.00 97 1009.4
20200706033405 49 9 0.0 1.0 0.00 0.61 0.00 97 1009.3
20200706032905 49 9 0.0 0.0 0.00 0.61 0.00 97 1009.2
20200706032404 49 9 0.0 0.0 0.00 0.61 0.00 97 1009.2
20200706031904 49 9 0.0 0.0 0.00 0.61 0.00 97 1009.2
20200706031405 49 9 0.0 0.0 0.00 0.61 0.00 97 1009.0
20200706030905 49 9 0.0 0.0 0.00 0.61 0.00 97 1009.0
20200706030405 49 9 0.0 2.0 0.00 0.61 0.00 97 1008.8
20200706025906 49 9 0.0 1.0 0.00 0.61 0.00 97 1008.8
20200706025404 49 9 0.0 1.0 0.00 0.61 0.00 97 1008.7
20200706024904 49 9 0.0 1.0 0.00 0.61 0.00 97 1008.6
20200706024405 49 9 0.0 2.0 0.00 0.61 0.00 97 1008.4
20200706023905 49 9 0.0 0.0 0.00 0.61 0.00 97 1008.1
20200706023405 49 9 0.0 2.0 0.00 0.61 0.00 97 1008.0
20200706022905 49 6 3.0 9.0 0.00 0.61 0.00 97 1008.0
20200706022404 49 260 1.0 3.0 0.00 0.61 0.00 97 1008.1
20200706021905 49 260 0.0 0.0 0.00 0.61 0.00 97 1007.9
20200706021405 48 260 0.0 0.0 0.00 0.61 0.00 97 1007.9
20200706020905 48 260 0.0 0.0 0.00 0.61 0.00 97 1007.8
20200706020404 48 260 0.0 0.0 0.00 0.62 0.00 97 1007.7
20200706015905 48 260 0.0 0.0 0.00 0.63 0.00 97 1007.6
20200706015405 48 260 0.0 0.0 0.00 0.65 0.00 97 1007.5
20200706014904 48 260 0.0 0.0 0.00 0.67 0.00 96 1007.5
20200706014405 48 260 0.0 0.0 0.00 0.69 0.00 96 1007.3
20200706013905 48 260 0.0 0.0 0.00 0.69 0.00 96 1007.3
20200706013406 48 260 0.0 0.0 0.00 0.70 0.00 96 1007.1
20200706012905 48 260 0.0 1.0 0.00 0.71 0.00 96 1007.0
20200706012405 48 260 0.0 0.0 0.00 0.72 0.00 96 1007.0
20200706011905 48 260 0.0 0.0 0.00 0.72 0.00 96 1006.9
20200706011405 48 260 0.0 0.0 0.00 0.73 0.00 96 1006.7
20200706010905 48 260 0.0 0.0 0.00 0.73 0.00 96 1006.6
20200706010405 48 260 0.0 1.0 0.00 0.73 0.00 96 1006.5
20200706005905 48 260 0.0 0.0 0.00 0.74 0.00 95 1006.5
20200706005405 48 260 0.0 3.0 0.00 0.74 0.00 95 1006.4
20200706004904 48 260 0.0 1.0 0.00 0.74 0.00 95 1006.3
20200706004404 49 260 0.0 0.0 0.00 0.74 0.00 95 1006.1
20200706003905 49 260 0.0 1.0 0.00 0.75 0.00 95 1005.9
20200706003404 49 260 0.0 3.0 0.00 0.75 0.00 95 1005.8
20200706002905 49 260 1.0 3.0 0.00 0.75 0.00 95 1005.7
20200706002405 50 260 0.0 0.0 0.00 0.76 0.00 95 1005.6
20200706001904 50 260 0.0 0.0 0.00 0.76 0.00 95 1005.6
20200706001404 50 260 0.0 0.0 0.00 0.76 0.00 96 1005.6
20200706000905 50 260 0.0 0.0 0.00 0.76 0.00 96 1005.5
20200706000405 50 260 0.0 0.0 0.00 0.76 0.00 96 1005.4
20200705235905 50 260 0.0 0.0 0.00 0.77 0.00 96 1005.3
20200705235405 50 260 0.0 0.0 0.00 0.77 0.00 95 1005.2
20200705234905 50 260 0.0 0.0 0.00 0.77 0.00 95 1005.1
20200705234405 50 260 0.0 2.0 0.00 0.77 0.00 95 1005.0
20200705233905 50 260 0.0 2.0 0.00 0.78 0.00 95 1004.9
20200705233405 50 260 0.0 1.0 0.00 0.78 0.00 95 1004.9
20200705232905 50 260 0.0 2.0 0.00 0.78 0.00 95 1004.9
20200705232404 50 260 0.0 2.0 0.00 0.78 0.00 95 1004.9
20200705231904 50 260 0.0 2.0 0.01 0.79 0.00 94 1004.9
20200705231405 50 260 0.0 2.0 0.01 0.80 0.00 94 1004.8
20200705230904 50 260 0.0 3.0 0.01 0.80 0.00 94 1004.7
20200705230405 50 260 0.0 1.0 0.02 0.81 0.00 93 1004.6
20200705225905 50 260 1.0 6.0 0.02 0.81 0.81 93 1004.5
20200705225405 51 262 1.0 3.0 0.02 0.82 0.81 92 1004.4
20200705224905 51 262 1.0 6.0 0.02 0.83 0.81 91 1004.4
20200705224405 51 266 2.0 5.0 0.02 0.83 0.81 91 1004.3
20200705223905 51 266 2.0 7.0 0.02 0.83 0.81 91 1004.2
20200705223407 52 269 2.0 13.0 0.02 0.85 0.81 91 1004.1
20200705222905 52 233 1.0 7.0 0.02 0.87 0.81 91 1004.1
20200705222405 52 242 1.0 5.0 0.02 0.87 0.81 91 1004.0
20200705221905 52 242 1.0 5.0 0.01 0.87 0.80 90 1003.8
20200705221405 52 241 2.0 3.0 0.01 0.88 0.80 90 1003.7
20200705220906 52 241 2.0 10.0 0.01 0.91 0.80 90 1003.7
20200705220405 52 259 2.0 6.0 0.00 0.91 0.80 90 1003.7
20200705215903 52 263 2.0 5.0 0.00 0.91 0.80 91 1003.6
20200705215404 52 264 2.0 8.0 0.00 0.92 0.80 90 1003.6
20200705214903 51 261 3.0 8.0 0.00 0.93 0.80 90 1003.6
20200705214404 51 244 1.0 6.0 0.00 0.94 0.80 91 1003.4
20200705213904 51 242 1.0 3.0 0.00 0.96 0.80 91 1003.3
20200705213403 51 242 1.0 10.0 0.00 0.98 0.80 91 1003.3
20200705212906 51 237 0.0 6.0 0.00 0.99 0.80 91 1003.2
20200705212402 51 243 1.0 5.0 0.00 1.00 0.80 90 1003.2
20200705211903 51 243 1.0 5.0 0.00 1.01 0.80 90 1003.2
20200705211404 51 243 1.0 3.0 0.00 1.02 0.80 90 1003.1
20200705210904 51 243 0.0 3.0 0.00 1.02 0.80 90 1003.0
20200705210403 51 243 2.0 7.0 0.00 1.03 0.80 90 1002.8
20200705205903 51 232 1.0 5.0 0.00 1.04 0.80 91 1002.8
20200705205403 51 234 3.0 8.0 0.00 1.05 0.80 91 1002.9
20200705204903 51 266 2.0 8.0 0.00 1.06 0.80 92 1002.8
20200705204403 51 254 2.0 8.0 0.00 1.07 0.80 90 1002.8
20200705203903 51 209 2.0 7.0 0.00 1.09 0.80 91 1002.7
20200705203403 51 202 2.0 7.0 0.01 1.11 0.80 91 1002.7
20200705202903 51 222 2.0 5.0 0.01 1.13 0.80 90 1002.6
20200705202403 51 222 2.0 5.0 0.01 1.13 0.80 92 1002.6
20200705201903 51 223 1.0 3.0 0.01 1.14 0.80 91 1002.5
20200705201403 51 223 2.0 6.0 0.01 1.15 0.80 90 1002.4
20200705200903 51 223 1.0 8.0 0.01 1.16 0.80 91 1002.3
20200705200410 51 224 1.0 5.0 0.01 1.16 0.80 93 1002.2
20200705195903 51 224 0.0 1.0 0.01 1.17 0.80 93 1002.1
20200705195404 51 224 1.0 3.0 0.01 1.17 0.80 93 1002.0
20200705194903 51 224 1.0 3.0 0.01 1.19 0.80 92 1002.0
20200705194404 52 224 2.0 3.0 0.01 1.20 0.80 90 1001.8
20200705193903 52 224 3.0 6.0 0.01 1.21 0.80 88 1001.6
20200705193403 52 210 3.0 10.0 0.00 1.22 0.79 89 1001.7
20200705192903 52 203 2.0 7.0 0.00 1.23 0.79 91 1001.5
20200705192403 52 205 2.0 7.0 0.00 1.24 0.79 89 1001.4
20200705191903 52 237 2.0 8.0 0.00 1.25 0.79 87 1001.3
20200705191403 53 250 3.0 10.0 0.02 1.25 0.79 89 1001.2
20200705190903 53 234 3.0 9.0 0.02 1.26 0.79 87 1001.2
20200705190403 54 257 1.0 6.0 0.02 1.26 0.79 88 1001.0
20200705185903 54 272 2.0 5.0 0.02 1.27 0.79 90 1000.9
20200705185403 55 272 0.0 2.0 0.04 1.27 0.79 88 1000.8
20200705184903 55 272 1.0 3.0 0.05 1.27 0.79 92 1000.7
20200705184403 54 272 1.0 6.0 0.05 1.27 0.79 90 1000.7
20200705183904 54 269 1.0 5.0 0.05 1.27 0.79 91 1000.6
20200705183404 53 266 1.0 3.0 0.05 1.27 0.79 90 1000.5
20200705182904 53 266 0.0 3.0 0.06 1.27 0.79 92 1000.4
20200705182404 53 266 0.0 7.0 0.06 1.27 0.79 92 1000.4
20200705181904 53 272 3.0 9.0 0.06 1.27 0.79 90 1000.3
20200705181404 53 239 0.0 3.0 0.04 1.25 0.77 92 1000.2
20200705180904 53 238 0.0 3.0 0.04 1.25 0.77 92 1000.2
20200705180404 53 235 1.0 7.0 0.04 1.25 0.77 90 999.9
20200705175904 53 210 3.0 9.0 0.03 1.24 0.76 88 999.9
20200705175403 53 298 3.0 8.0 0.02 1.23 0.75 89 999.7
20200705174903 53 276 0.0 2.0 0.01 1.22 0.74 93 999.7
20200705174404 53 276 0.0 1.0 0.01 1.22 0.74 93 999.6
20200705173903 53 276 0.0 2.0 0.01 1.22 0.74 91 999.6
20200705173404 53 276 0.0 2.0 0.01 1.22 0.74 92 999.5
20200705172905 53 276 1.0 7.0 0.00 1.21 0.73 88 999.4
20200705172404 54 277 2.0 7.0 0.00 1.21 0.73 88 999.5
20200705171903 53 281 1.0 3.0 0.00 1.21 0.73 89 999.3
20200705171404 54 281 0.0 3.0 0.00 1.21 0.73 87 999.3
20200705170903 54 271 2.0 9.0 0.00 1.21 0.73 85 999.3
20200705170404 54 209 2.0 5.0 0.00 1.21 0.73 84 999.2
20200705165904 54 204 2.0 6.0 0.01 1.21 0.73 86 999.1
20200705165404 55 200 1.0 7.0 0.01 1.21 0.73 87 999.1
20200705164905 55 192 1.0 5.0 0.03 1.21 0.73 88 999.1
20200705164403 55 192 0.0 6.0 0.04 1.21 0.73 87 999.0
20200705163903 55 192 3.0 7.0 0.04 1.21 0.73 86 998.9
20200705163412 55 195 3.0 8.0 0.04 1.21 0.73 88 998.8
20200705162904 55 195 5.0 7.0 0.04 1.21 0.73 90 998.8
20200705162404 54 201 2.0 7.0 0.04 1.21 0.73 91 998.7
20200705161905 53 201 1.0 3.0 0.04 1.21 0.73 93 998.7
20200705161408 53 201 1.0 6.0 0.04 1.21 0.73 94 998.6
20200705160904 53 199 2.0 7.0 0.04 1.21 0.73 93 998.6
20200705160404 52 209 1.0 8.0 0.04 1.21 0.73 93 998.4
20200705155904 52 195 0.0 6.0 0.03 1.20 0.72 92 998.4
20200705155403 53 190 2.0 9.0 0.03 1.20 0.72 91 998.3
20200705154904 53 202 2.0 8.0 0.01 1.18 0.70 90 998.3
20200705154404 54 206 2.0 8.0 0.00 1.17 0.69 88 998.2
20200705153905 54 202 4.0 8.0 0.00 1.17 0.69 87 998.0
20200705153404 55 198 3.0 13.0 0.00 1.17 0.69 87 997.9
20200705152903 55 205 2.0 8.0 0.00 1.17 0.69 86 998.0
20200705152403 55 215 3.0 9.0 0.00 1.17 0.69 87 998.0
20200705151904 55 198 3.0 12.0 0.00 1.17 0.69 87 997.9
20200705151403 54 202 3.0 7.0 0.00 1.17 0.69 87 998.0
20200705150908 54 211 2.0 7.0 0.00 1.17 0.69 86 998.0
20200705150404 54 202 2.0 5.0 0.00 1.17 0.69 86 998.0
20200705145918 54 202 1.0 5.0 0.00 1.17 0.69 87 998.0
20200705145403 55 202 2.0 6.0 0.00 1.17 0.69 86 998.0
20200705144905 55 202 2.0 7.0 0.00 1.17 0.69 88 998.0
20200705144403 55 200 3.0 7.0 0.01 1.17 0.69 86 997.9
20200705143903 55 200 2.0 7.0 0.01 1.17 0.69 86 997.9
20200705143404 54 200 1.0 7.0 0.01 1.17 0.69 89 997.8
20200705142903 54 196 2.0 7.0 0.01 1.17 0.69 88 997.7
20200705142403 54 198 2.0 7.0 0.01 1.17 0.69 90 997.8
20200705141904 53 200 2.0 7.0 0.01 1.17 0.69 93 997.7
20200705141404 52 200 2.0 8.0 0.01 1.17 0.69 92 997.7
20200705140904 52 199 3.0 8.0 0.02 1.17 0.69 92 997.8
20200705140403 52 199 1.0 5.0 0.02 1.17 0.69 94 997.8
20200705135903 53 199 1.0 3.0 0.02 1.17 0.69 93 997.7
20200705135405 53 199 2.0 5.0 0.02 1.17 0.69 93 997.5
20200705134904 53 198 2.0 7.0 0.02 1.17 0.69 93 997.6
20200705134405 53 198 3.0 7.0 0.01 1.17 0.69 93 997.6
20200705133903 52 198 2.0 6.0 0.01 1.17 0.69 93 997.7
20200705133404 52 198 1.0 5.0 0.01 1.17 0.69 93 997.7
20200705132906 51 198 1.0 3.0 0.02 1.17 0.69 94 997.8
20200705132403 51 198 0.0 3.0 0.02 1.17 0.69 95 997.7
20200705131907 51 198 0.0 3.0 0.02 1.17 0.69 94 997.6
20200705131404 51 198 0.0 1.0 0.03 1.17 0.69 93 997.6
20200705130904 51 198 0.0 3.0 0.05 1.16 0.68 93 997.7
20200705130404 51 198 1.0 5.0 0.10 1.16 0.68 93 997.8
20200705125903 51 198 2.0 6.0 0.16 1.16 0.68 92 997.8
20200705125403 51 198 0.0 2.0 0.17 1.16 0.68 95 997.7
20200705124903 51 198 0.0 0.0 0.17 1.16 0.68 94 997.7
20200705124406 51 198 0.0 0.0 0.17 1.16 0.68 94 997.7
20200705123904 51 198 0.0 1.0 0.17 1.16 0.68 96 997.6
20200705123404 51 198 0.0 2.0 0.17 1.16 0.68 95 997.7